Terminal Aerodrome Forecast
Issued by NWS

Home | Current Version | Previous Version | Text Only | Print | Product List | Glossary On
Versions: 1 2 3 4 5 6 7 8 9 10 11 12
216
FTUS44 KLIX 211731
TAFMSY
TAF
KMSY 211731Z 2118/2218 13015KT P6SM SCT030 BKN150
     FM212000 13015KT P6SM VCSH SCT025 BKN050
      TEMPO 2120/2123 4SM TSRA BKN025CB
     FM220000 12010KT P6SM SCT030 BKN050
     FM220700 12010KT P6SM SCT015 BKN025
     FM221400 14008KT P6SM VCSH BKN025 OVC050
      TEMPO 2216/2218 4SM TSRA BKN025CB=

USA.gov is the U.S. government's official web portal to all federal, state and local government web resources and services.